Time;durP1;ratioP1;P1;durP2;ratioP2;P2;SDS_P1;SDS_P2;PMS_P1;PMS_P2;Temp;Humidity;BMP_temperature;BMP_pressure;BME280_temperature;BME280_humidity;BME280_pressure;Samples;Min_cycle;Max_cycle;Signal;HPM_P1;HPM_P2
2022/01/10 00:00:22;;;;;;;168.27;158.57;;;0.50;99.90;;;;;;4448463;32;20143;-62
2022/01/10 00:02:51;;;;;;;167.17;158.00;;;0.50;99.90;;;;;;4441351;32;20230;-62
2022/01/10 00:05:24;;;;;;;166.63;158.30;;;0.50;99.90;;;;;;4448577;32;20237;-62
2022/01/10 00:07:51;;;;;;;174.97;165.83;;;0.50;99.90;;;;;;4447878;32;20222;-63
2022/01/10 00:10:18;;;;;;;169.13;160.27;;;0.50;99.90;;;;;;4437944;32;20170;-63
2022/01/10 00:12:47;;;;;;;165.10;156.70;;;0.50;99.90;;;;;;4440639;32;20147;-63
2022/01/10 00:15:16;;;;;;;167.67;158.70;;;0.50;99.90;;;;;;4449727;32;20147;-62
2022/01/10 00:17:45;;;;;;;155.47;147.37;;;0.50;99.90;;;;;;4441019;32;20142;-62
2022/01/10 00:20:15;;;;;;;162.17;153.70;;;0.40;99.90;;;;;;4442629;32;20162;-62
2022/01/10 00:22:45;;;;;;;156.33;148.30;;;0.40;99.90;;;;;;4442589;32;20585;-62
2022/01/10 00:25:14;;;;;;;157.87;149.63;;;0.40;99.90;;;;;;4447861;32;20559;-62
2022/01/10 00:27:41;;;;;;;150.97;143.23;;;0.40;99.90;;;;;;4449039;32;20143;-62
2022/01/10 00:30:11;;;;;;;162.50;154.23;;;0.50;99.90;;;;;;4446449;32;20482;-62
2022/01/10 00:32:38;;;;;;;157.93;149.50;;;0.40;99.90;;;;;;4443593;32;20603;-62
2022/01/10 00:35:08;;;;;;;161.73;152.93;;;0.40;99.90;;;;;;4438905;32;20567;-62
2022/01/10 00:37:35;;;;;;;152.23;143.60;;;0.40;99.90;;;;;;4437548;32;20143;-62
2022/01/10 00:40:05;;;;;;;160.50;152.60;;;0.30;99.90;;;;;;4447283;32;20226;-62
2022/01/10 00:42:32;;;;;;;149.00;140.43;;;0.30;99.90;;;;;;4439937;32;20147;-62
2022/01/10 00:45:02;;;;;;;156.40;147.80;;;0.30;99.90;;;;;;4447097;32;20195;-62
2022/01/10 00:47:29;;;;;;;156.33;147.80;;;0.30;99.90;;;;;;4441290;32;20192;-62
2022/01/10 00:49:56;;;;;;;151.77;143.60;;;0.30;99.90;;;;;;4444319;32;20206;-63
2022/01/10 00:52:24;;;;;;;154.23;145.33;;;0.30;99.90;;;;;;4444647;32;20139;-63
2022/01/10 00:54:51;;;;;;;140.80;133.50;;;0.30;99.90;;;;;;4441305;32;20143;-63
2022/01/10 00:57:23;;;;;;;149.07;141.20;;;0.30;99.90;;;;;;4444574;32;20197;-62
2022/01/10 00:59:50;;;;;;;146.67;138.80;;;0.30;99.90;;;;;;4442309;32;20652;-62
2022/01/10 01:02:16;;;;;;;147.23;139.20;;;0.30;99.90;;;;;;4442063;32;20312;-62
2022/01/10 01:04:43;;;;;;;148.90;140.93;;;0.30;99.90;;;;;;4447894;32;20585;-62
2022/01/10 01:07:13;;;;;;;148.20;140.47;;;0.20;99.90;;;;;;4442097;32;20229;-61
2022/01/10 01:09:57;;;;;;;147.23;139.13;;;0.20;99.90;;;;;;4439944;32;20234;-62
2022/01/10 01:12:37;;;;;;;134.70;126.97;;;0.20;99.90;;;;;;4451146;32;20139;-61
2022/01/10 01:15:18;;;;;;;141.17;133.37;;;0.20;99.90;;;;;;4449946;32;20142;-63
2022/01/10 01:18:00;;;;;;;122.53;115.07;;;0.20;99.90;;;;;;4437266;32;20135;-63
2022/01/10 01:26:15;;;;;;;;;;;;;;;;;;;;;
2022/01/10 01:28:42;;;;;;;127.00;119.87;;;0.20;99.90;;;;;;4446007;32;20139;-62
2022/01/10 01:31:12;;;;;;;138.50;131.03;;;0.10;99.90;;;;;;4450344;32;20142;-62
2022/01/10 01:33:40;;;;;;;148.77;141.37;;;0.10;99.90;;;;;;4452208;32;20178;-62
2022/01/10 01:36:07;;;;;;;140.67;133.30;;;0.10;99.90;;;;;;4446391;32;20488;-62
2022/01/10 01:38:34;;;;;;;155.93;148.07;;;0.10;99.90;;;;;;4438552;32;20229;-62
2022/01/10 01:41:18;;;;;;;133.83;126.80;;;0.10;99.90;;;;;;4448449;32;20210;-62
2022/01/10 01:43:48;;;;;;;130.23;123.30;;;0.10;99.90;;;;;;4440065;32;20144;-62
2022/01/10 01:46:18;;;;;;;131.20;124.03;;;0.00;99.90;;;;;;4443898;32;20162;-63
2022/01/10 01:48:47;;;;;;;125.77;118.47;;;0.00;99.90;;;;;;4442076;32;20481;-63
2022/01/10 01:51:14;;;;;;;127.73;120.60;;;0.00;99.90;;;;;;4450114;32;20544;-63
2022/01/10 01:53:45;;;;;;;140.13;132.33;;;0.00;99.90;;;;;;4440369;32;20174;-62
2022/01/10 01:56:13;;;;;;;132.23;124.37;;;0.00;99.90;;;;;;4444654;32;20218;-63
2022/01/10 01:58:41;;;;;;;143.00;135.20;;;0.00;99.90;;;;;;4446462;32;20222;-62
2022/01/10 02:01:16;;;;;;;141.10;133.20;;;0.00;99.90;;;;;;4447743;32;20181;-62
2022/01/10 02:03:43;;;;;;;132.73;125.83;;;0.00;99.90;;;;;;4440868;32;20174;-62
2022/01/10 02:06:10;;;;;;;135.77;127.93;;;0.00;99.90;;;;;;4447135;32;20201;-63
2022/01/10 02:08:42;;;;;;;138.67;130.73;;;0.00;99.90;;;;;;4445532;32;20198;-63
2022/01/10 02:11:18;;;;;;;128.77;122.03;;;0.00;99.90;;;;;;4439244;32;20232;-63
2022/01/10 02:13:46;;;;;;;139.20;131.03;;;-0.10;99.90;;;;;;4446353;32;20210;-63
2022/01/10 02:16:20;;;;;;;138.53;130.83;;;0.00;99.90;;;;;;4438337;32;20226;-63
2022/01/10 02:18:49;;;;;;;138.77;131.07;;;0.00;99.90;;;;;;4439061;32;20170;-63
2022/01/10 02:21:17;;;;;;;134.70;127.67;;;0.00;99.90;;;;;;4444111;32;20147;-63
2022/01/10 02:23:44;;;;;;;142.43;134.97;;;0.00;99.90;;;;;;4439879;32;20625;-63
2022/01/10 02:26:11;;;;;;;154.60;146.17;;;0.10;99.90;;;;;;4442341;32;20614;-63
2022/01/10 02:28:45;;;;;;;152.57;144.13;;;0.10;99.90;;;;;;4438732;32;20223;-64
2022/01/10 02:31:15;;;;;;;138.70;130.67;;;0.10;99.90;;;;;;4439101;32;20185;-63
2022/01/10 02:33:42;;;;;;;138.67;131.13;;;0.20;99.90;;;;;;4437634;32;20219;-63
2022/01/10 02:36:17;;;;;;;140.07;131.93;;;0.10;99.90;;;;;;4443520;32;20155;-63
2022/01/10 02:38:50;;;;;;;141.43;133.57;;;0.10;99.90;;;;;;4445466;32;20172;-63
2022/01/10 02:41:21;;;;;;;135.97;128.47;;;0.10;99.90;;;;;;4439015;32;20155;-63
2022/01/10 02:43:48;;;;;;;137.07;129.27;;;0.10;99.90;;;;;;4439392;32;20574;-63
2022/01/10 02:46:15;;;;;;;138.17;130.07;;;0.10;99.90;;;;;;4436691;32;20533;-62
2022/01/10 02:48:42;;;;;;;135.93;128.43;;;0.10;99.90;;;;;;4445807;32;20214;-63
2022/01/10 02:51:09;;;;;;;142.63;134.60;;;0.10;99.90;;;;;;4446042;32;20158;-62
2022/01/10 02:53:36;;;;;;;134.43;126.87;;;0.10;99.90;;;;;;4445272;32;20571;-63
2022/01/10 02:56:09;;;;;;;139.43;131.63;;;0.10;99.90;;;;;;4440234;32;20163;-63
2022/01/10 02:58:40;;;;;;;143.47;135.47;;;0.10;99.90;;;;;;4431967;32;20289;-63
2022/01/10 03:01:07;;;;;;;135.73;128.17;;;0.10;99.90;;;;;;4423634;32;20655;-60
2022/01/10 03:03:34;;;;;;;156.77;148.17;;;0.30;99.90;;;;;;4435353;32;20159;-63
2022/01/10 03:06:02;;;;;;;150.97;142.87;;;0.40;99.90;;;;;;4445712;32;20281;-63
2022/01/10 03:08:31;;;;;;;148.70;140.83;;;0.40;99.90;;;;;;4440888;32;20189;-63
2022/01/10 03:10:58;;;;;;;159.90;151.00;;;0.40;99.90;;;;;;4435639;32;20144;-63
2022/01/10 03:13:26;;;;;;;154.80;146.43;;;0.50;99.90;;;;;;4443811;32;20162;-63
2022/01/10 03:15:53;;;;;;;159.50;150.53;;;0.50;99.90;;;;;;4446081;32;20206;-63
2022/01/10 03:18:20;;;;;;;145.40;137.30;;;0.40;99.90;;;;;;4448547;32;20151;-63
2022/01/10 03:20:47;;;;;;;140.40;132.73;;;0.40;99.90;;;;;;4440614;32;20482;-63
2022/01/10 03:23:14;;;;;;;141.53;133.97;;;0.40;99.90;;;;;;4448748;32;20162;-63
2022/01/10 03:25:41;;;;;;;152.10;144.13;;;0.40;99.90;;;;;;4442658;32;20524;-61
2022/01/10 03:28:13;;;;;;;149.97;142.03;;;0.40;99.90;;;;;;4450510;32;20424;-61
2022/01/10 03:30:41;;;;;;;148.60;139.93;;;0.40;99.90;;;;;;4442670;32;20143;-61
2022/01/10 03:33:08;;;;;;;138.00;131.13;;;0.50;99.90;;;;;;4443901;32;20178;-62
2022/01/10 03:35:35;;;;;;;133.10;125.40;;;0.50;99.90;;;;;;4441695;32;20146;-63
2022/01/10 03:38:02;;;;;;;144.57;136.57;;;0.40;99.90;;;;;;4441907;32;20222;-63
2022/01/10 03:40:31;;;;;;;156.77;148.17;;;0.40;99.90;;;;;;4443608;32;20586;-63
2022/01/10 03:42:58;;;;;;;151.07;142.60;;;0.40;99.90;;;;;;4445330;32;20135;-63
2022/01/10 03:45:25;;;;;;;159.50;150.63;;;0.40;99.90;;;;;;4441516;32;20146;-63
2022/01/10 03:47:53;;;;;;;163.73;154.77;;;0.40;99.90;;;;;;4446905;32;20219;-63
2022/01/10 03:50:20;;;;;;;159.07;150.33;;;0.40;99.90;;;;;;4453820;32;20617;-63
2022/01/10 03:52:47;;;;;;;163.33;154.17;;;0.40;99.90;;;;;;4453161;32;20219;-62
2022/01/10 03:55:16;;;;;;;168.03;159.00;;;0.40;99.90;;;;;;4441772;32;20224;-63
2022/01/10 03:57:43;;;;;;;163.77;154.83;;;0.60;99.90;;;;;;4449416;32;20144;-63
2022/01/10 04:00:14;;;;;;;173.80;164.10;;;0.60;99.90;;;;;;4440355;32;20425;-63
2022/01/10 04:02:45;;;;;;;179.70;169.67;;;0.70;99.90;;;;;;4447207;32;20251;-63
2022/01/10 04:05:13;;;;;;;181.40;170.90;;;0.70;99.90;;;;;;4440637;32;20151;-61
2022/01/10 04:07:43;;;;;;;179.37;169.57;;;0.80;99.90;;;;;;4450320;32;20240;-63
2022/01/10 04:10:10;;;;;;;196.50;185.30;;;0.80;99.90;;;;;;4444772;32;20143;-62
2022/01/10 04:12:37;;;;;;;181.80;171.90;;;0.70;99.90;;;;;;4441020;32;20634;-62
2022/01/10 04:15:04;;;;;;;187.53;176.80;;;0.70;99.90;;;;;;4448666;32;20537;-62
2022/01/10 04:17:31;;;;;;;187.37;177.20;;;0.80;99.90;;;;;;4449473;32;20170;-62
2022/01/10 04:19:58;;;;;;;211.60;200.47;;;0.80;99.90;;;;;;4445849;32;20166;-62
2022/01/10 04:22:29;;;;;;;202.40;191.77;;;0.90;99.90;;;;;;4439866;32;20227;-62
2022/01/10 04:24:56;;;;;;;203.60;192.43;;;0.90;99.90;;;;;;4449261;32;20226;-62
2022/01/10 04:27:23;;;;;;;203.13;191.83;;;1.00;99.90;;;;;;4440358;32;20653;-62
2022/01/10 04:29:50;;;;;;;206.50;195.43;;;1.00;99.90;;;;;;4444916;32;20187;-62
2022/01/10 04:32:17;;;;;;;210.50;199.07;;;1.10;99.90;;;;;;4446442;32;20515;-62
2022/01/10 04:34:47;;;;;;;215.80;204.10;;;1.10;99.90;;;;;;4450034;32;20226;-61
2022/01/10 04:37:14;;;;;;;213.20;201.57;;;1.20;99.90;;;;;;4448302;32;20156;-61
2022/01/10 04:39:47;;;;;;;230.13;218.57;;;1.30;99.90;;;;;;4444953;32;20691;-61
2022/01/10 04:42:20;;;;;;;218.90;207.10;;;1.30;99.90;;;;;;4441074;32;20251;-61
2022/01/10 04:44:49;;;;;;;203.50;192.10;;;1.30;99.90;;;;;;4444454;32;20163;-61
2022/01/10 04:47:17;;;;;;;235.33;222.97;;;1.30;99.90;;;;;;4439743;32;20166;-62
2022/01/10 04:50:04;;;;;;;252.17;238.60;;;1.40;99.90;;;;;;4448057;32;20209;-61
2022/01/10 04:52:32;;;;;;;217.43;205.53;;;1.50;99.90;;;;;;4444148;32;20193;-62
2022/01/10 04:55:00;;;;;;;245.80;232.57;;;1.60;99.90;;;;;;4441696;32;20222;-62
2022/01/10 04:57:27;;;;;;;242.10;229.20;;;1.60;99.90;;;;;;4444656;32;20147;-62
2022/01/10 04:59:55;;;;;;;254.03;240.03;;;1.70;99.90;;;;;;4449433;32;20166;-63
2022/01/10 05:02:21;;;;;;;240.40;227.10;;;1.70;99.90;;;;;;4448898;32;20161;-60
2022/01/10 05:04:48;;;;;;;255.77;241.77;;;1.90;99.90;;;;;;4444338;32;20201;-62
2022/01/10 05:07:15;;;;;;;255.87;242.43;;;1.80;99.90;;;;;;4447469;32;20223;-62
2022/01/10 05:09:42;;;;;;;261.70;247.83;;;1.80;99.90;;;;;;4438239;32;20155;-60
2022/01/10 05:12:10;;;;;;;260.83;247.20;;;1.90;99.90;;;;;;4452053;32;20545;-63
2022/01/10 05:14:37;;;;;;;268.53;254.30;;;1.90;99.90;;;;;;4442850;32;20164;-63
2022/01/10 05:17:07;;;;;;;256.40;242.90;;;2.00;99.90;;;;;;4443297;32;20186;-60
2022/01/10 05:19:36;;;;;;;266.80;253.47;;;2.00;99.90;;;;;;4437112;32;20154;-61
2022/01/10 05:22:03;;;;;;;259.73;246.10;;;2.00;99.90;;;;;;4442691;32;20142;-61
2022/01/10 05:24:30;;;;;;;259.27;246.10;;;2.10;99.90;;;;;;4448421;32;20676;-62
2022/01/10 05:26:57;;;;;;;262.40;249.13;;;2.10;99.90;;;;;;4444532;32;20181;-62
2022/01/10 05:29:25;;;;;;;269.17;255.67;;;2.10;99.90;;;;;;4448976;32;20174;-62
2022/01/10 05:31:52;;;;;;;251.80;238.67;;;2.10;99.90;;;;;;4436963;32;20172;-61
2022/01/10 05:34:19;;;;;;;257.23;242.43;;;2.10;99.90;;;;;;4442431;32;20575;-61
2022/01/10 05:36:45;;;;;;;263.67;250.03;;;2.20;99.90;;;;;;4441836;32;20167;-63
2022/01/10 05:39:12;;;;;;;274.13;259.90;;;2.10;99.90;;;;;;4437274;32;20169;-61
2022/01/10 05:41:39;;;;;;;261.83;248.73;;;2.20;99.90;;;;;;4441496;32;20147;-61
2022/01/10 05:44:06;;;;;;;269.97;256.33;;;2.20;99.90;;;;;;4451503;32;20157;-63
2022/01/10 05:46:35;;;;;;;259.07;244.83;;;2.20;99.90;;;;;;4436504;32;20227;-61
2022/01/10 05:49:07;;;;;;;249.07;236.23;;;2.30;99.90;;;;;;4433738;32;20189;-63
2022/01/10 05:51:36;;;;;;;277.83;263.97;;;2.20;99.90;;;;;;4422778;32;20278;-64
2022/01/10 05:54:03;;;;;;;259.23;246.40;;;2.30;99.90;;;;;;4444875;32;20142;-63
2022/01/10 05:56:31;;;;;;;269.13;255.90;;;2.30;99.90;;;;;;4442915;32;20195;-63
2022/01/10 05:58:58;;;;;;;274.67;260.90;;;2.30;99.90;;;;;;4441900;32;20155;-62
2022/01/10 06:01:25;;;;;;;277.43;262.97;;;2.40;99.90;;;;;;4444920;32;20214;-62
2022/01/10 06:03:54;;;;;;;267.50;254.27;;;2.40;99.90;;;;;;4446280;32;20225;-61
2022/01/10 06:06:23;;;;;;;265.73;252.60;;;2.40;99.90;;;;;;4441995;32;20211;-62
2022/01/10 06:08:50;;;;;;;273.63;259.23;;;2.40;99.90;;;;;;4447399;32;20218;-65
2022/01/10 06:11:17;;;;;;;278.07;263.70;;;2.50;99.90;;;;;;4437089;32;20148;-62
2022/01/10 06:13:44;;;;;;;271.57;258.00;;;2.50;99.90;;;;;;4441381;32;20161;-62
2022/01/10 06:16:16;;;;;;;282.57;268.00;;;2.50;99.90;;;;;;4441892;32;20238;-63
2022/01/10 06:18:42;;;;;;;282.60;268.53;;;2.50;99.90;;;;;;4445154;32;20165;-64
2022/01/10 06:21:14;;;;;;;279.33;265.47;;;2.50;99.90;;;;;;4441951;32;20549;-63
2022/01/10 06:23:41;;;;;;;268.30;255.07;;;2.50;99.90;;;;;;4438523;32;20550;-61
2022/01/10 06:26:07;;;;;;;263.77;250.17;;;2.50;99.90;;;;;;4438835;32;20163;-61
2022/01/10 06:28:34;;;;;;;272.20;258.90;;;2.60;99.90;;;;;;4446049;32;20152;-61
2022/01/10 06:31:01;;;;;;;279.57;265.50;;;2.60;99.90;;;;;;4440603;32;20250;-61
2022/01/10 06:33:28;;;;;;;267.73;254.20;;;2.60;99.90;;;;;;4443798;32;20160;-61
2022/01/10 06:35:57;;;;;;;269.80;256.40;;;2.60;99.90;;;;;;4442851;32;20379;-62
2022/01/10 06:38:26;;;;;;;277.30;262.67;;;2.60;99.90;;;;;;4439576;32;20222;-63
2022/01/10 06:40:53;;;;;;;266.83;253.50;;;2.60;99.90;;;;;;4444628;32;20215;-62
2022/01/10 06:43:19;;;;;;;270.87;257.43;;;2.60;99.90;;;;;;4441911;32;20159;-63
2022/01/10 06:45:46;;;;;;;289.50;274.27;;;2.60;99.90;;;;;;4442410;32;20151;-61
2022/01/10 06:48:13;;;;;;;308.73;293.20;;;2.70;99.90;;;;;;4439721;32;20163;-62
2022/01/10 06:50:47;;;;;;;297.20;281.63;;;2.70;99.90;;;;;;4437772;32;20237;-63
2022/01/10 06:53:14;;;;;;;279.17;264.90;;;2.70;99.90;;;;;;4439582;32;20158;-63
2022/01/10 06:55:43;;;;;;;278.47;264.67;;;2.70;99.90;;;;;;4438251;32;20209;-62
2022/01/10 06:58:16;;;;;;;291.87;276.87;;;2.70;99.90;;;;;;4441821;32;20145;-65
2022/01/10 07:00:43;;;;;;;288.03;273.37;;;2.70;99.90;;;;;;4441665;32;20171;-61
2022/01/10 07:03:10;;;;;;;277.80;263.60;;;2.70;99.90;;;;;;4440944;32;20502;-61
2022/01/10 07:05:36;;;;;;;269.70;255.23;;;2.70;99.90;;;;;;4439368;32;20168;-62
2022/01/10 07:08:09;;;;;;;271.33;256.93;;;2.70;99.90;;;;;;4439434;32;20220;-61
2022/01/10 07:10:36;;;;;;;264.43;251.00;;;2.70;99.90;;;;;;4440419;32;20143;-63
2022/01/10 07:13:04;;;;;;;286.60;272.00;;;2.70;99.90;;;;;;4443354;32;20155;-64
2022/01/10 07:15:32;;;;;;;279.40;265.07;;;2.70;99.90;;;;;;4441963;32;20664;-61
2022/01/10 07:17:58;;;;;;;281.60;266.70;;;2.70;99.90;;;;;;4440149;32;20170;-61
2022/01/10 07:20:27;;;;;;;280.27;266.23;;;2.70;99.90;;;;;;4446647;32;20159;-61
2022/01/10 07:22:54;;;;;;;259.20;246.53;;;2.70;99.90;;;;;;4444381;32;20161;-64
2022/01/10 07:25:24;;;;;;;255.13;242.53;;;2.70;99.90;;;;;;4440314;32;20164;-60
2022/01/10 07:27:56;;;;;;;255.90;242.27;;;2.70;99.90;;;;;;4444138;32;20171;-61
2022/01/10 07:30:25;;;;;;;270.03;255.87;;;2.70;99.90;;;;;;4437118;32;20585;-64
2022/01/10 07:32:52;;;;;;;255.83;242.83;;;2.70;99.90;;;;;;4435835;32;20159;-60
2022/01/10 07:35:19;;;;;;;253.00;240.27;;;2.60;99.90;;;;;;4435641;32;20189;-63
2022/01/10 07:37:46;;;;;;;269.33;255.87;;;2.60;99.90;;;;;;4436642;32;20464;-62
2022/01/10 07:40:13;;;;;;;265.33;251.67;;;2.50;99.90;;;;;;4435805;32;20156;-61
2022/01/10 07:42:40;;;;;;;237.10;224.37;;;2.50;99.90;;;;;;4435692;32;20201;-63
2022/01/10 07:45:07;;;;;;;239.77;227.87;;;2.40;99.90;;;;;;4435775;32;20148;-61
2022/01/10 07:47:36;;;;;;;234.20;221.60;;;2.40;99.90;;;;;;4435798;32;20135;-62
2022/01/10 07:50:04;;;;;;;259.73;246.20;;;2.30;99.90;;;;;;4436278;32;20223;-61
2022/01/10 07:52:31;;;;;;;232.77;220.63;;;2.30;99.90;;;;;;4435589;32;20210;-65
2022/01/10 07:54:59;;;;;;;235.33;223.27;;;2.20;99.90;;;;;;4436410;32;20223;-62
2022/01/10 07:57:25;;;;;;;242.13;229.87;;;2.20;99.90;;;;;;4435780;32;20135;-61
2022/01/10 07:59:52;;;;;;;254.97;241.80;;;2.20;99.90;;;;;;4435760;32;20173;-64
2022/01/10 08:02:20;;;;;;;235.67;223.27;;;2.10;99.90;;;;;;4435599;32;20532;-61
2022/01/10 08:04:54;;;;;;;231.97;219.23;;;2.20;99.90;;;;;;4435671;32;20152;-61
2022/01/10 08:07:21;;;;;;;253.10;239.67;;;2.10;99.90;;;;;;4435862;32;20539;-61
2022/01/10 08:09:47;;;;;;;270.70;256.70;;;2.20;99.90;;;;;;4435925;32;20138;-64
2022/01/10 08:12:17;;;;;;;270.20;256.07;;;2.30;99.90;;;;;;4438431;32;20169;-61
2022/01/10 08:14:44;;;;;;;267.50;253.87;;;2.40;99.90;;;;;;4438528;32;20143;-61
2022/01/10 08:17:11;;;;;;;302.03;286.70;;;2.40;99.90;;;;;;4438413;32;20222;-61
2022/01/10 08:19:38;;;;;;;282.77;268.40;;;2.50;99.90;;;;;;4439485;32;20542;-62
2022/01/10 08:22:07;;;;;;;297.73;282.97;;;2.60;99.90;;;;;;4438531;32;20137;-65
2022/01/10 08:24:38;;;;;;;300.07;284.80;;;2.70;99.90;;;;;;4438760;32;20185;-61
2022/01/10 08:27:06;;;;;;;298.90;284.20;;;2.90;99.90;;;;;;4438756;32;20148;-64
2022/01/10 08:29:36;;;;;;;302.37;287.07;;;2.90;99.90;;;;;;4438068;32;20192;-63
2022/01/10 08:32:03;;;;;;;313.90;297.83;;;3.00;99.90;;;;;;4439859;32;20170;-61
2022/01/10 08:34:30;;;;;;;312.17;295.93;;;3.10;99.90;;;;;;4437966;32;20191;-62
2022/01/10 08:37:00;;;;;;;322.40;306.03;;;3.10;99.90;;;;;;4438791;32;20145;-62
2022/01/10 08:39:30;;;;;;;327.73;311.17;;;3.20;99.90;;;;;;4438254;32;20168;-63
2022/01/10 08:41:57;;;;;;;350.43;333.00;;;3.20;99.90;;;;;;4439690;32;20140;-62
2022/01/10 08:44:24;;;;;;;346.47;328.57;;;3.30;99.90;;;;;;4439948;32;20142;-63
2022/01/10 08:46:51;;;;;;;319.20;302.93;;;3.40;99.90;;;;;;4437981;32;20179;-64
2022/01/10 08:49:18;;;;;;;334.00;316.93;;;3.50;99.90;;;;;;4446459;32;20158;-65
2022/01/10 08:51:46;;;;;;;316.23;299.70;;;3.50;99.90;;;;;;4444066;32;20169;-65
2022/01/10 08:54:16;;;;;;;314.53;298.23;;;3.50;99.90;;;;;;4443917;32;20136;-65
2022/01/10 08:56:44;;;;;;;342.13;325.53;;;3.50;99.90;;;;;;4444756;32;20230;-62
2022/01/10 08:59:11;;;;;;;349.10;331.27;;;3.60;99.90;;;;;;4444669;32;20159;-65
2022/01/10 09:01:42;;;;;;;323.70;307.33;;;3.60;99.90;;;;;;4445600;32;20148;-65
2022/01/10 09:04:15;;;;;;;326.50;309.87;;;3.70;99.90;;;;;;4445816;32;20158;-63
2022/01/10 09:06:44;;;;;;;336.97;320.20;;;3.70;99.90;;;;;;4445609;32;20487;-62
2022/01/10 09:09:17;;;;;;;331.90;315.27;;;3.70;99.90;;;;;;4443613;32;20139;-64
2022/01/10 09:11:47;;;;;;;327.93;311.40;;;3.80;99.90;;;;;;4444127;32;20169;-65
2022/01/10 09:14:14;;;;;;;338.43;321.57;;;3.90;99.90;;;;;;4446235;32;20155;-62
2022/01/10 09:16:42;;;;;;;311.97;296.17;;;3.90;99.90;;;;;;4443312;32;20594;-62
2022/01/10 09:19:10;;;;;;;321.63;305.03;;;4.00;99.90;;;;;;4450313;32;20147;-62
2022/01/10 09:21:37;;;;;;;337.60;320.70;;;4.00;99.90;;;;;;4452527;32;20166;-64
2022/01/10 09:24:05;;;;;;;343.13;325.43;;;4.10;99.90;;;;;;4453769;32;20181;-63
2022/01/10 09:26:32;;;;;;;343.00;325.47;;;4.10;99.90;;;;;;4452694;32;20135;-64
2022/01/10 09:29:00;;;;;;;320.13;303.37;;;4.20;99.90;;;;;;4453106;32;20145;-62
2022/01/10 09:31:28;;;;;;;331.20;314.93;;;4.20;99.90;;;;;;4452382;32;20162;-63
2022/01/10 09:33:56;;;;;;;332.83;316.80;;;4.30;99.90;;;;;;4452589;32;20502;-64
2022/01/10 09:36:25;;;;;;;334.57;317.33;;;4.40;99.90;;;;;;4452385;32;20177;-60
2022/01/10 09:38:54;;;;;;;347.37;329.73;;;4.40;99.90;;;;;;4440249;32;20164;-65
2022/01/10 09:41:26;;;;;;;320.53;304.50;;;4.50;99.90;;;;;;4437446;32;20139;-65
2022/01/10 09:43:56;;;;;;;317.27;300.97;;;4.50;99.90;;;;;;4444139;32;20699;-65
2022/01/10 09:46:25;;;;;;;339.40;322.13;;;4.50;99.90;;;;;;4454211;32;20610;-62
2022/01/10 09:48:52;;;;;;;356.83;338.43;;;4.50;99.90;;;;;;4452248;32;20159;-62
2022/01/10 09:51:19;;;;;;;345.83;328.43;;;4.60;99.90;;;;;;4453804;32;20587;-62
2022/01/10 09:53:46;;;;;;;369.47;351.10;;;4.70;99.90;;;;;;4453454;32;20141;-64
2022/01/10 09:56:14;;;;;;;354.20;336.50;;;4.80;99.90;;;;;;4452808;32;20209;-61
2022/01/10 09:58:41;;;;;;;354.13;336.80;;;4.90;99.90;;;;;;4446306;32;20159;-62
2022/01/10 10:01:08;;;;;;;359.27;341.30;;;5.00;99.90;;;;;;4439291;32;20551;-62
2022/01/10 10:03:36;;;;;;;352.47;334.60;;;5.00;99.90;;;;;;4443199;32;20430;-62
2022/01/10 10:06:03;;;;;;;338.13;321.63;;;5.00;99.90;;;;;;4437274;32;20205;-64
2022/01/10 10:08:30;;;;;;;349.67;332.87;;;5.20;99.90;;;;;;4436642;32;20153;-63
2022/01/10 10:10:57;;;;;;;327.40;310.97;;;5.10;99.90;;;;;;4437033;32;20544;-64
2022/01/10 10:13:24;;;;;;;312.53;297.20;;;5.10;99.90;;;;;;4436579;32;20183;-66
2022/01/10 10:15:51;;;;;;;321.10;305.10;;;5.10;99.90;;;;;;4438220;32;20499;-62
2022/01/10 10:18:20;;;;;;;331.83;315.30;;;5.20;99.90;;;;;;4436540;32;20242;-62
2022/01/10 10:20:48;;;;;;;333.70;317.53;;;5.30;99.90;;;;;;4436411;32;20143;-63
2022/01/10 10:23:18;;;;;;;336.70;320.47;;;5.30;99.90;;;;;;4437047;32;20184;-63
2022/01/10 10:25:53;;;;;;;326.83;310.40;;;5.30;99.90;;;;;;4441951;32;20147;-64
2022/01/10 10:28:22;;;;;;;307.33;292.50;;;5.30;99.90;;;;;;4451521;32;20189;-64
2022/01/10 10:30:56;;;;;;;319.90;304.07;;;5.40;99.90;;;;;;4453426;32;20188;-61
2022/01/10 10:33:25;;;;;;;331.70;315.13;;;5.40;99.90;;;;;;4451962;32;20190;-64
2022/01/10 10:35:57;;;;;;;341.70;324.77;;;5.40;99.90;;;;;;4452100;32;20161;-63
2022/01/10 10:38:25;;;;;;;322.70;306.53;;;5.50;99.90;;;;;;4452230;32;20169;-62
2022/01/10 10:40:53;;;;;;;324.37;308.37;;;5.50;99.90;;;;;;4451825;32;20138;-66
2022/01/10 10:43:19;;;;;;;321.87;306.53;;;5.40;99.90;;;;;;4452503;32;20162;-63
2022/01/10 10:45:48;;;;;;;323.77;308.13;;;5.40;99.90;;;;;;4453441;32;20154;-64
2022/01/10 10:48:17;;;;;;;328.60;312.97;;;5.40;99.90;;;;;;4451765;32;20159;-63
2022/01/10 10:50:47;;;;;;;333.50;317.23;;;5.30;99.90;;;;;;4451571;32;20146;-64
2022/01/10 10:53:16;;;;;;;335.80;318.40;;;5.30;99.90;;;;;;4452484;32;20221;-64
2022/01/10 10:55:48;;;;;;;324.20;307.97;;;5.20;99.90;;;;;;4451277;32;20182;-63
2022/01/10 10:58:15;;;;;;;313.40;297.73;;;5.20;99.90;;;;;;4451721;32;20135;-63
2022/01/10 11:00:42;;;;;;;324.23;308.03;;;5.10;99.90;;;;;;4451363;32;20209;-62
2022/01/10 11:03:12;;;;;;;328.17;311.97;;;5.20;99.90;;;;;;4451827;32;20194;-64
2022/01/10 11:05:44;;;;;;;301.30;285.83;;;5.40;99.90;;;;;;4451504;32;20457;-63
2022/01/10 11:08:11;;;;;;;328.50;312.03;;;5.40;99.90;;;;;;4451321;32;20476;-63
2022/01/10 11:10:40;;;;;;;327.40;310.83;;;5.50;99.90;;;;;;4452129;32;20513;-63
2022/01/10 11:13:08;;;;;;;995.70;929.20;;;5.60;99.90;;;;;;4446045;32;20124;-63
2022/01/10 11:15:38;;;;;;;526.23;498.43;;;5.70;99.90;;;;;;4436744;32;20227;-62
2022/01/10 11:18:07;;;;;;;447.03;424.63;;;5.80;99.90;;;;;;4448964;32;20277;-63
2022/01/10 11:20:41;;;;;;;389.23;370.03;;;5.90;99.90;;;;;;4439671;32;20193;-64
2022/01/10 11:23:09;;;;;;;391.87;372.73;;;6.00;99.90;;;;;;4444920;32;20629;-63
2022/01/10 11:25:40;;;;;;;378.80;360.33;;;6.00;99.90;;;;;;4436383;32;20184;-62
2022/01/10 11:28:10;;;;;;;352.80;335.17;;;6.10;99.90;;;;;;4435784;32;20165;-63
2022/01/10 11:30:40;;;;;;;347.47;330.40;;;6.00;99.90;;;;;;4435895;32;20131;-61
2022/01/10 11:33:08;;;;;;;364.83;347.10;;;6.00;99.90;;;;;;4435963;32;20147;-61
2022/01/10 11:35:37;;;;;;;380.97;362.40;;;6.00;99.90;;;;;;4435775;32;20139;-62
2022/01/10 11:38:23;;;;;;;394.83;375.70;;;5.90;99.90;;;;;;4435904;32;20131;-62
2022/01/10 11:40:52;;;;;;;356.80;339.33;;;5.80;99.90;;;;;;4436233;32;20155;-64
2022/01/10 11:43:44;;;;;;;340.00;323.13;;;5.70;99.90;;;;;;4436246;32;20548;-63
2022/01/10 11:46:14;;;;;;;339.33;322.57;;;5.50;99.90;;;;;;4361041;32;20188;-65
2022/01/10 11:48:44;;;;;;;338.60;321.53;;;5.40;99.90;;;;;;4361035;33;20152;-63
2022/01/10 11:51:19;;;;;;;340.50;323.83;;;5.30;99.90;;;;;;4361149;32;20273;-64
2022/01/10 11:53:51;;;;;;;367.63;349.47;;;5.20;99.90;;;;;;4360865;33;20522;-63
2022/01/10 11:56:31;;;;;;;370.33;352.17;;;5.10;99.90;;;;;;4360507;33;20207;-63
2022/01/10 11:59:10;;;;;;;376.67;358.30;;;5.00;99.90;;;;;;4360957;32;20198;-63
2022/01/10 12:01:39;;;;;;;365.13;346.43;;;4.90;99.90;;;;;;4361931;32;20148;-61
2022/01/10 12:04:07;;;;;;;374.77;356.33;;;4.90;99.90;;;;;;4360705;32;20149;-64
2022/01/10 12:06:34;;;;;;;391.50;372.10;;;4.80;99.90;;;;;;4362314;32;20146;-62
2022/01/10 12:09:03;;;;;;;395.93;374.80;;;4.90;99.90;;;;;;4360408;32;20585;-64
2022/01/10 12:11:33;;;;;;;388.60;368.27;;;4.80;99.90;;;;;;4360789;32;20536;-65
2022/01/10 12:14:00;;;;;;;389.23;370.37;;;4.80;99.90;;;;;;4360754;32;20157;-63
2022/01/10 12:16:29;;;;;;;403.43;383.13;;;4.70;99.90;;;;;;4362343;32;20491;-62
2022/01/10 12:18:57;;;;;;;400.97;380.67;;;4.80;99.90;;;;;;4361703;32;20581;-62
2022/01/10 12:21:27;;;;;;;415.33;393.77;;;4.80;99.90;;;;;;4360930;32;20627;-62
2022/01/10 12:23:56;;;;;;;401.60;381.50;;;4.80;99.90;;;;;;4407283;32;20178;-61
2022/01/10 12:26:24;;;;;;;423.37;402.17;;;4.80;99.90;;;;;;4422918;32;20160;-64
2022/01/10 12:28:53;;;;;;;407.03;386.57;;;4.80;99.90;;;;;;4423024;32;20136;-59
2022/01/10 12:31:21;;;;;;;418.30;398.00;;;4.90;99.90;;;;;;4424184;32;20196;-62